createdAt,value
2022-09-10T00:00:27.611Z,99438.56
2022-09-10T00:00:59.050Z,99440.19
2022-09-10T00:01:30.527Z,99444.03
2022-09-10T00:02:02.090Z,99456.09
2022-09-10T00:02:33.653Z,99438.88
2022-09-10T00:03:05.215Z,99439.56
2022-09-10T00:03:36.680Z,99438.75
2022-09-10T00:04:08.077Z,99434.91
2022-09-10T00:04:39.494Z,99438.44
2022-09-10T00:05:10.883Z,99433.78
2022-09-10T00:05:42.557Z,99431.97
2022-09-10T00:06:14.055Z,99438.44
2022-09-10T00:06:45.510Z,99437.81
2022-09-10T00:07:16.943Z,99439.44
2022-09-10T00:07:48.403Z,99438.00
2022-09-10T00:08:19.910Z,99437.50
2022-09-10T00:08:51.375Z,99436.69
2022-09-10T00:09:22.818Z,99438.31
2022-09-10T00:09:54.257Z,99437.19
2022-09-10T00:10:25.678Z,99438.94
2022-09-10T00:10:57.068Z,99433.78
2022-09-10T00:11:28.509Z,99427.63
2022-09-10T00:12:00.009Z,99427.94
2022-09-10T00:12:31.465Z,99432.91
2022-09-10T00:13:02.890Z,99427.94
2022-09-10T00:13:34.359Z,99430.22
2022-09-10T00:14:05.745Z,99428.59
2022-09-10T00:14:37.139Z,99437.91
2022-09-10T00:15:08.521Z,99429.22
2022-09-10T00:15:40.003Z,99423.56
2022-09-10T00:16:11.483Z,99424.69
2022-09-10T00:16:42.950Z,99425.81
2022-09-10T00:17:14.359Z,99428.25
2022-09-10T00:17:45.795Z,99421.47
2022-09-10T00:18:17.276Z,99426.00
2022-09-10T00:18:48.731Z,99424.69
2022-09-10T00:19:20.117Z,99417.94
2022-09-10T00:19:51.555Z,99422.16
2022-09-10T00:20:23.091Z,99430.34
2022-09-10T00:20:54.464Z,99428.72
2022-09-10T00:21:25.875Z,99425.38
2022-09-10T00:21:57.280Z,99425.56
2022-09-10T00:22:28.700Z,99425.88
2022-09-10T00:23:00.172Z,99423.44
2022-09-10T00:23:31.687Z,99419.91
2022-09-10T00:24:03.131Z,99426.81
2022-09-10T00:24:34.516Z,99417.50
2022-09-10T00:25:08.393Z,99416.19
2022-09-10T00:25:40.101Z,99422.94
2022-09-10T00:26:11.561Z,99428.59
2022-09-10T00:26:43.018Z,99419.41
2022-09-10T00:27:14.439Z,99430.34
2022-09-10T00:27:45.848Z,99420.22
2022-09-10T00:28:17.259Z,99426.50
2022-09-10T00:28:48.705Z,99422.16
2022-09-10T00:29:20.140Z,99421.53
2022-09-10T00:29:51.563Z,99419.59
2022-09-10T00:30:23.044Z,99423.75
2022-09-10T00:30:54.490Z,99420.72
2022-09-10T00:31:26.053Z,99419.41
2022-09-10T00:31:57.572Z,99425.38
2022-09-10T00:32:29.043Z,99422.16
2022-09-10T00:33:00.489Z,99418.44
2022-09-10T00:33:31.912Z,99420.72
2022-09-10T00:34:03.461Z,99419.28
2022-09-10T00:34:34.879Z,99421.66
2022-09-10T00:35:06.283Z,99420.13
2022-09-10T00:35:37.739Z,99426.66
2022-09-10T00:36:09.200Z,99423.22
2022-09-10T00:36:40.655Z,99425.97
2022-09-10T00:37:12.080Z,99419.06
2022-09-10T00:37:43.672Z,99427.28
2022-09-10T00:38:15.121Z,99429.38
2022-09-10T00:38:46.542Z,99428.56
2022-09-10T00:39:18.039Z,99430.69
2022-09-10T00:39:49.517Z,99422.16
2022-09-10T00:40:21.048Z,99420.25
2022-09-10T00:40:52.430Z,99425.28
2022-09-10T00:41:23.865Z,99429.75
2022-09-10T00:41:55.288Z,99429.75
2022-09-10T00:42:26.731Z,99428.13
2022-09-10T00:42:58.113Z,99424.28
2022-09-10T00:43:29.490Z,99430.56
2022-09-10T00:44:01.067Z,99432.97
2022-09-10T00:44:35.550Z,99429.94
2022-09-10T00:45:07.209Z,99424.97
2022-09-10T00:45:38.693Z,99433.34
2022-09-10T00:46:10.156Z,99426.75
2022-09-10T00:46:41.542Z,99426.44
2022-09-10T00:47:12.968Z,99426.75
2022-09-10T00:47:44.402Z,99428.06
2022-09-10T00:48:15.848Z,99425.31
2022-09-10T00:48:47.468Z,99431.59
2022-09-10T00:49:18.881Z,99423.91
2022-09-10T00:49:50.309Z,99426.81
2022-09-10T00:50:21.756Z,99424.06
2022-09-10T00:50:53.236Z,99419.72
2022-09-10T00:51:24.720Z,99424.38
2022-09-10T00:51:56.118Z,99422.78
2022-09-10T00:52:27.561Z,99424.38
2022-09-10T00:52:58.968Z,99423.25
2022-09-10T00:53:30.353Z,99421.34
2022-09-10T00:54:01.743Z,99425.38
2022-09-10T00:54:33.265Z,99424.38
2022-09-10T00:55:04.672Z,99427.44
2022-09-10T00:55:36.103Z,99425.50
2022-09-10T00:56:07.557Z,99414.25
2022-09-10T00:56:39.016Z,99424.88
2022-09-10T00:57:10.488Z,99423.56
2022-09-10T00:57:41.953Z,99419.91
2022-09-10T00:58:13.359Z,99418.78
2022-09-10T00:58:44.772Z,99420.72
2022-09-10T00:59:16.480Z,99423.13
2022-09-10T00:59:47.996Z,99421.03
2022-09-10T01:00:19.356Z,99422.16
2022-09-10T01:00:50.813Z,99418.28
2022-09-10T01:01:22.311Z,99429.03
2022-09-10T01:01:53.769Z,99421.97
2022-09-10T01:02:25.185Z,99420.03
2022-09-10T01:02:56.607Z,99419.91
2022-09-10T01:03:28.053Z,99419.72
2022-09-10T01:03:59.461Z,99418.75
2022-09-10T01:04:30.872Z,99421.16
2022-09-10T01:05:02.265Z,99416.84
2022-09-10T01:05:33.702Z,99420.53
2022-09-10T01:06:05.112Z,99423.56
2022-09-10T01:06:36.540Z,99421.16
2022-09-10T01:07:07.963Z,99418.56
2022-09-10T01:07:39.346Z,99413.59
2022-09-10T01:08:10.755Z,99424.38
2022-09-10T01:08:42.200Z,99419.06
2022-09-10T01:09:13.633Z,99424.03
2022-09-10T01:09:45.062Z,99420.47
2022-09-10T01:10:16.522Z,99423.03
2022-09-10T01:10:47.905Z,99418.38
2022-09-10T01:11:19.327Z,99421.91
2022-09-10T01:11:50.793Z,99422.72
2022-09-10T01:12:22.169Z,99424.66
2022-09-10T01:12:53.662Z,99414.03
2022-09-10T01:13:25.068Z,99422.53
2022-09-10T01:13:56.513Z,99425.28
2022-09-10T01:14:27.906Z,99419.63
2022-09-10T01:14:59.296Z,99425.09
2022-09-10T01:15:30.663Z,99420.75
2022-09-10T01:16:02.131Z,99420.25
2022-09-10T01:16:33.590Z,99418.81
2022-09-10T01:17:05.060Z,99421.06
2022-09-10T01:17:36.505Z,99418.31
2022-09-10T01:18:07.939Z,99413.34
2022-09-10T01:18:39.438Z,99419.75
2022-09-10T01:19:10.919Z,99422.47
2022-09-10T01:19:42.322Z,99427.16
2022-09-10T01:20:13.791Z,99414.09
2022-09-10T01:20:45.208Z,99420.56
2022-09-10T01:21:16.763Z,99420.38
2022-09-10T01:21:48.244Z,99417.16
2022-09-10T01:22:19.679Z,99417.16
2022-09-10T01:22:51.130Z,99414.41
2022-09-10T01:23:22.523Z,99419.56
2022-09-10T01:23:53.944Z,99423.91
2022-09-10T01:24:25.455Z,99414.28
2022-09-10T01:24:56.851Z,99421.50
2022-09-10T01:25:28.268Z,99422.31
2022-09-10T01:25:59.670Z,99417.81
2022-09-10T01:26:31.128Z,99420.06
2022-09-10T01:27:02.581Z,99416.84
2022-09-10T01:27:33.975Z,99429.38
2022-09-10T01:28:05.441Z,99424.53
2022-09-10T01:28:37.001Z,99416.97
2022-09-10T01:29:08.488Z,99425.66
2022-09-10T01:29:39.879Z,99433.34
2022-09-10T01:30:11.307Z,99426.91
2022-09-10T01:30:42.723Z,99420.31
2022-09-10T01:31:14.185Z,99418.06
2022-09-10T01:31:45.673Z,99424.34
2022-09-10T01:32:17.213Z,99432.84
2022-09-10T01:32:48.644Z,99423.84
2022-09-10T01:33:20.061Z,99431.25
2022-09-10T01:33:51.475Z,99422.56
2022-09-10T01:34:22.896Z,99422.72
2022-09-10T01:34:54.284Z,99421.31
2022-09-10T01:35:25.695Z,99425.97
2022-09-10T01:35:57.121Z,99427.75
2022-09-10T01:36:28.580Z,99422.91
2022-09-10T01:37:00.086Z,99430.63
2022-09-10T01:37:31.501Z,99424.53
2022-09-10T01:38:02.943Z,99426.34
2022-09-10T01:38:34.407Z,99426.97
2022-09-10T01:39:05.855Z,99419.06
2022-09-10T01:39:37.300Z,99423.41
2022-09-10T01:40:09.022Z,99422.97
2022-09-10T01:40:40.496Z,99427.16
2022-09-10T01:41:11.934Z,99426.34
2022-09-10T01:41:43.351Z,99425.03
2022-09-10T01:42:14.876Z,99418.25
2022-09-10T01:42:46.305Z,99426.97
2022-09-10T01:43:17.754Z,99421.00
2022-09-10T01:43:49.163Z,99429.50
2022-09-10T01:44:20.548Z,99424.03
2022-09-10T01:44:51.980Z,99424.53
2022-09-10T01:45:23.448Z,99424.53
2022-09-10T01:45:55.064Z,99424.22
2022-09-10T01:46:26.514Z,99417.34
2022-09-10T01:46:58.008Z,99425.84
2022-09-10T01:47:29.495Z,99427.44
2022-09-10T01:48:00.898Z,99425.53
2022-09-10T01:48:32.315Z,99429.69
2022-09-10T01:49:03.742Z,99428.06
2022-09-10T01:49:35.110Z,99431.31
2022-09-10T01:50:06.494Z,99429.38
2022-09-10T01:50:37.920Z,99433.41
2022-09-10T01:51:09.333Z,99436.47
2022-09-10T01:51:40.760Z,99429.69
2022-09-10T01:52:12.160Z,99437.88
2022-09-10T01:52:43.579Z,99433.72
2022-09-10T01:53:15.033Z,99438.69
2022-09-10T01:53:46.436Z,99435.97
2022-09-10T01:54:17.844Z,99438.81
2022-09-10T01:54:49.251Z,99440.41
2022-09-10T01:55:20.661Z,99430.63
2022-09-10T01:55:52.051Z,99432.84
2022-09-10T01:56:23.531Z,99431.22
2022-09-10T01:56:54.963Z,99432.84
2022-09-10T01:57:26.481Z,99436.88
2022-09-10T01:57:58.009Z,99428.69
2022-09-10T01:58:29.458Z,99429.81
2022-09-10T01:59:00.855Z,99433.84
2022-09-10T01:59:32.266Z,99437.19
2022-09-10T02:00:03.725Z,99436.88
2022-09-10T02:00:35.144Z,99438.00
2022-09-10T02:01:06.642Z,99438.31
2022-09-10T02:01:38.141Z,99435.59
2022-09-10T02:02:09.676Z,99433.47
2022-09-10T02:02:41.055Z,99435.28
2022-09-10T02:03:12.509Z,99438.81
2022-09-10T02:03:43.952Z,99442.34
2022-09-10T02:04:15.359Z,99434.47
2022-09-10T02:04:46.773Z,99438.81
2022-09-10T02:05:18.270Z,99433.34
2022-09-10T02:05:49.710Z,99439.63
2022-09-10T02:06:21.171Z,99444.28
2022-09-10T02:06:52.639Z,99434.47
2022-09-10T02:07:24.028Z,99438.50
2022-09-10T02:07:55.425Z,99442.22
2022-09-10T02:08:27.339Z,99444.97
2022-09-10T02:08:58.736Z,99440.00
2022-09-10T02:09:30.286Z,99440.63
2022-09-10T02:10:01.689Z,99441.59
2022-09-10T02:10:33.083Z,99443.84
2022-09-10T02:11:04.460Z,99442.22
2022-09-10T02:11:35.819Z,99436.16
2022-09-10T02:12:07.415Z,99440.00
2022-09-10T02:12:38.787Z,99444.66
2022-09-10T02:13:10.257Z,99435.97
2022-09-10T02:13:41.729Z,99438.19
2022-09-10T02:14:13.180Z,99439.81
2022-09-10T02:14:44.668Z,99439.81
2022-09-10T02:15:16.315Z,99435.78
2022-09-10T02:15:47.729Z,99434.16
2022-09-10T02:16:19.146Z,99444.28
2022-09-10T02:16:50.626Z,99444.28
2022-09-10T02:17:22.033Z,99441.22
2022-09-10T02:17:53.450Z,99445.88
2022-09-10T02:18:24.872Z,99440.91
2022-09-10T02:18:56.355Z,99441.72
2022-09-10T02:19:27.769Z,99442.03
2022-09-10T02:19:59.176Z,99438.50
2022-09-10T02:20:30.593Z,99433.84
2022-09-10T02:21:02.050Z,99431.13
2022-09-10T02:21:33.471Z,99442.34
2022-09-10T02:22:04.899Z,99440.91
2022-09-10T02:22:36.373Z,99431.59
2022-09-10T02:23:07.894Z,99436.25
2022-09-10T02:23:39.286Z,99430.81
2022-09-10T02:24:10.726Z,99434.03
2022-09-10T02:24:42.187Z,99433.72
2022-09-10T02:25:13.607Z,99437.88
2022-09-10T02:25:45.071Z,99435.97
2022-09-10T02:26:16.590Z,99439.19
2022-09-10T02:26:47.951Z,99440.63
2022-09-10T02:27:19.359Z,99437.06
2022-09-10T02:27:51.058Z,99434.84
2022-09-10T02:28:22.463Z,99435.97
2022-09-10T02:28:53.967Z,99435.97
2022-09-10T02:29:25.421Z,99433.22
2022-09-10T02:29:56.845Z,99429.88
2022-09-10T02:30:28.259Z,99438.06
2022-09-10T02:30:59.658Z,99439.19
2022-09-10T02:31:31.166Z,99437.75
2022-09-10T02:32:02.603Z,99435.03
2022-09-10T02:32:34.022Z,99432.28
2022-09-10T02:33:05.422Z,99435.84
2022-09-10T02:33:36.831Z,99440.19
2022-09-10T02:34:08.253Z,99439.69
2022-09-10T02:34:39.665Z,99438.06
2022-09-10T02:35:11.056Z,99438.06
2022-09-10T02:35:42.460Z,99435.34
2022-09-10T02:36:13.852Z,99434.53
2022-09-10T02:36:45.324Z,99429.88
2022-09-10T02:37:16.757Z,99429.06
2022-09-10T02:37:48.204Z,99433.72
2022-09-10T02:38:19.628Z,99431.00
2022-09-10T02:38:51.014Z,99431.50
2022-09-10T02:39:22.394Z,99429.06
2022-09-10T02:39:53.816Z,99431.50
2022-09-10T02:40:25.245Z,99436.47
2022-09-10T02:40:56.681Z,99439.50
2022-09-10T02:41:28.148Z,99428.88
2022-09-10T02:41:59.522Z,99437.56
2022-09-10T02:42:30.947Z,99434.34
2022-09-10T02:43:02.382Z,99433.22
2022-09-10T02:43:33.912Z,99435.34
2022-09-10T02:44:05.350Z,99437.25
2022-09-10T02:44:36.786Z,99438.88
2022-09-10T02:45:08.240Z,99434.22
2022-09-10T02:45:39.693Z,99432.00
2022-09-10T02:46:11.162Z,99436.16
2022-09-10T02:46:42.624Z,99437.44
2022-09-10T02:47:14.032Z,99433.91
2022-09-10T02:47:45.486Z,99438.88
2022-09-10T02:48:16.995Z,99439.19
2022-09-10T02:48:48.408Z,99435.97
2022-09-10T02:49:19.834Z,99438.69
2022-09-10T02:49:51.458Z,99432.91
2022-09-10T02:50:22.864Z,99441.13
2022-09-10T02:50:54.322Z,99441.13
2022-09-10T02:51:25.724Z,99436.94
2022-09-10T02:51:57.232Z,99438.25
2022-09-10T02:52:28.677Z,99435.34
2022-09-10T02:53:00.122Z,99441.91
2022-09-10T02:53:31.668Z,99436.47
2022-09-10T02:54:03.107Z,99435.47
2022-09-10T02:54:34.516Z,99440.91
2022-09-10T02:55:05.899Z,99437.06
2022-09-10T02:55:37.373Z,99435.47
2022-09-10T02:56:08.776Z,99434.97
2022-09-10T02:56:40.172Z,99428.06
2022-09-10T02:57:11.633Z,99433.84
2022-09-10T02:57:43.142Z,99430.31
2022-09-10T02:58:14.590Z,99436.88
2022-09-10T02:58:46.034Z,99430.63
2022-09-10T02:59:17.583Z,99436.06
2022-09-10T02:59:49.026Z,99431.72
2022-09-10T03:00:20.445Z,99434.16
2022-09-10T03:00:51.885Z,99436.06
2022-09-10T03:01:23.384Z,99436.88
2022-09-10T03:01:54.895Z,99432.53
2022-09-10T03:02:26.362Z,99432.22
2022-09-10T03:03:02.836Z,99434.47
2022-09-10T03:03:34.610Z,99442.66
2022-09-10T03:04:05.990Z,99433.03
2022-09-10T03:04:37.357Z,99434.97
2022-09-10T03:05:08.809Z,99435.28
2022-09-10T03:05:40.285Z,99437.19
2022-09-10T03:06:11.716Z,99430.13
2022-09-10T03:06:43.117Z,99430.13
2022-09-10T03:07:14.540Z,99426.88
2022-09-10T03:07:45.985Z,99432.03
2022-09-10T03:08:17.518Z,99431.84
2022-09-10T03:08:48.937Z,99430.72
2022-09-10T03:09:20.418Z,99429.94
2022-09-10T03:09:51.815Z,99425.88
2022-09-10T03:10:23.236Z,99429.44
2022-09-10T03:10:54.678Z,99427.19
2022-09-10T03:11:26.074Z,99429.13
2022-09-10T03:11:57.524Z,99422.53
2022-09-10T03:12:28.989Z,99430.72
2022-09-10T03:13:00.478Z,99425.78
2022-09-10T03:13:31.876Z,99425.28
2022-09-10T03:14:03.290Z,99427.19
2022-09-10T03:14:34.697Z,99433.47
2022-09-10T03:15:06.079Z,99440.53
2022-09-10T03:15:37.488Z,99429.63
2022-09-10T03:16:09.222Z,99429.63
2022-09-10T03:16:40.847Z,99433.78
2022-09-10T03:17:12.287Z,99431.53
2022-09-10T03:17:43.759Z,99427.19
2022-09-10T03:18:15.215Z,99427.69
2022-09-10T03:18:46.674Z,99425.78
2022-09-10T03:19:18.095Z,99430.72
2022-09-10T03:19:49.539Z,99430.72
2022-09-10T03:20:20.931Z,99428.00
2022-09-10T03:20:52.368Z,99425.28
2022-09-10T03:21:23.795Z,99428.00
2022-09-10T03:21:55.207Z,99428.00
2022-09-10T03:22:26.665Z,99420.63
2022-09-10T03:22:58.096Z,99425.78
2022-09-10T03:23:29.560Z,99426.56
2022-09-10T03:24:00.987Z,99424.66
2022-09-10T03:24:32.400Z,99424.47
2022-09-10T03:25:03.874Z,99433.97
2022-09-10T03:25:35.321Z,99433.97
2022-09-10T03:26:06.733Z,99430.44
2022-09-10T03:26:38.147Z,99431.22
2022-09-10T03:27:09.598Z,99429.94
2022-09-10T03:27:41.021Z,99431.03
2022-09-10T03:28:12.437Z,99428.31
2022-09-10T03:28:43.838Z,99426.69
2022-09-10T03:29:15.308Z,99425.09
2022-09-10T03:29:46.689Z,99428.13
2022-09-10T03:30:18.098Z,99431.34
2022-09-10T03:30:49.585Z,99436.19
2022-09-10T03:31:21.059Z,99427.50
2022-09-10T03:31:52.554Z,99428.63
2022-09-10T03:32:24.020Z,99433.28
2022-09-10T03:32:55.431Z,99430.72
2022-09-10T03:33:26.871Z,99427.50
2022-09-10T03:33:58.282Z,99433.78
2022-09-10T03:34:29.735Z,99435.69
2022-09-10T03:35:01.136Z,99434.09
2022-09-10T03:35:32.583Z,99429.13
2022-09-10T03:36:03.959Z,99429.75
2022-09-10T03:36:35.390Z,99427.59
2022-09-10T03:37:06.828Z,99429.75
2022-09-10T03:37:38.247Z,99435.19
2022-09-10T03:38:09.647Z,99428.13
2022-09-10T03:38:41.058Z,99438.25
2022-09-10T03:39:12.421Z,99432.25
2022-09-10T03:39:43.881Z,99422.44
2022-09-10T03:40:15.387Z,99432.56
2022-09-10T03:40:46.811Z,99426.78
2022-09-10T03:41:18.269Z,99429.00
2022-09-10T03:41:49.756Z,99424.06
2022-09-10T03:42:21.319Z,99430.03
2022-09-10T03:42:52.741Z,99431.94
2022-09-10T03:43:24.159Z,99432.78
2022-09-10T03:43:55.659Z,99431.66
2022-09-10T03:44:27.195Z,99435.19
2022-09-10T03:44:58.626Z,99431.94
2022-09-10T03:45:30.146Z,99424.28
2022-09-10T03:46:01.609Z,99431.34
2022-09-10T03:46:33.086Z,99433.28
2022-09-10T03:47:04.490Z,99432.16
2022-09-10T03:47:36.005Z,99426.19
2022-09-10T03:48:07.374Z,99429.22
2022-09-10T03:48:38.865Z,99428.94
2022-09-10T03:49:10.409Z,99430.84
2022-09-10T03:49:41.831Z,99427.31
2022-09-10T03:50:13.303Z,99430.31
2022-09-10T03:50:44.733Z,99435.19
2022-09-10T03:51:16.542Z,99430.22
2022-09-10T03:51:48.070Z,99427.81
2022-09-10T03:52:19.490Z,99429.75
2022-09-10T03:52:50.939Z,99425.59
2022-09-10T03:53:22.448Z,99427.50
2022-09-10T03:53:53.832Z,99432.97
2022-09-10T03:54:25.267Z,99436.81
2022-09-10T03:54:56.707Z,99429.75
2022-09-10T03:55:28.135Z,99440.66
2022-09-10T03:55:59.512Z,99433.59
2022-09-10T03:56:30.971Z,99430.84
2022-09-10T03:57:02.353Z,99438.25
2022-09-10T03:57:33.758Z,99436.81
2022-09-10T03:58:05.235Z,99435.19
2022-09-10T03:58:36.698Z,99443.88
2022-09-10T03:59:08.138Z,99440.66
2022-09-10T03:59:39.577Z,99434.09
2022-09-10T04:00:10.974Z,99438.44
2022-09-10T04:00:42.391Z,99434.88
2022-09-10T04:01:13.865Z,99430.53
2022-09-10T04:01:45.478Z,99439.84
2022-09-10T04:02:17.135Z,99436.31
2022-09-10T04:02:48.679Z,99435.78
2022-09-10T04:03:20.092Z,99442.06
2022-09-10T04:03:51.631Z,99433.88
2022-09-10T04:04:23.010Z,99434.66
2022-09-10T04:04:54.445Z,99430.84
2022-09-10T04:05:25.866Z,99431.66
2022-09-10T04:05:57.266Z,99436.00
2022-09-10T04:06:28.783Z,99442.28
2022-09-10T04:07:00.165Z,99439.03
2022-09-10T04:07:31.550Z,99436.31
2022-09-10T04:08:03.084Z,99440.66
2022-09-10T04:08:34.785Z,99440.13
2022-09-10T04:09:06.223Z,99431.66
2022-09-10T04:09:37.627Z,99437.41
2022-09-10T04:10:09.170Z,99433.88
2022-09-10T04:10:40.593Z,99433.59
2022-09-10T04:11:12.018Z,99438.75
2022-09-10T04:11:43.492Z,99436.00
2022-09-10T04:12:15.015Z,99436.59
2022-09-10T04:12:46.417Z,99436.00
2022-09-10T04:13:17.904Z,99435.19
2022-09-10T04:13:49.352Z,99442.28
2022-09-10T04:14:20.821Z,99441.16
2022-09-10T04:14:52.213Z,99441.47
2022-09-10T04:15:23.637Z,99442.28
2022-09-10T04:15:55.040Z,99439.03
2022-09-10T04:16:26.474Z,99441.25
2022-09-10T04:16:57.925Z,99440.75
2022-09-10T04:17:29.348Z,99440.75
2022-09-10T04:18:00.793Z,99443.97
2022-09-10T04:18:32.309Z,99440.75
2022-09-10T04:19:03.749Z,99447.31
2022-09-10T04:19:35.149Z,99438.81
2022-09-10T04:20:06.572Z,99442.88
2022-09-10T04:20:38.016Z,99445.59
2022-09-10T04:21:09.443Z,99438.25
2022-09-10T04:21:40.862Z,99439.84
2022-09-10T04:22:12.263Z,99441.78
2022-09-10T04:22:43.690Z,99439.84
2022-09-10T04:23:15.090Z,99443.38
2022-09-10T04:23:46.605Z,99442.28
2022-09-10T04:24:18.038Z,99443.09
2022-09-10T04:24:49.437Z,99443.88
2022-09-10T04:25:20.827Z,99441.47
2022-09-10T04:25:52.227Z,99435.19
2022-09-10T04:26:23.630Z,99444.19
2022-09-10T04:26:55.042Z,99443.88
2022-09-10T04:27:26.455Z,99436.81
2022-09-10T04:27:57.876Z,99437.94
2022-09-10T04:28:29.286Z,99442.88
2022-09-10T04:29:00.734Z,99438.25
2022-09-10T04:29:32.133Z,99440.13
2022-09-10T04:30:03.565Z,99442.06
2022-09-10T04:30:35.026Z,99437.13
2022-09-10T04:31:06.479Z,99433.59
2022-09-10T04:31:37.905Z,99435.19
2022-09-10T04:32:09.385Z,99439.84
2022-09-10T04:32:40.783Z,99440.66
2022-09-10T04:33:12.248Z,99441.47
2022-09-10T04:33:43.624Z,99445.59
2022-09-10T04:34:15.035Z,99439.13
2022-09-10T04:34:46.482Z,99438.31
2022-09-10T04:35:17.926Z,99432.88
2022-09-10T04:35:49.353Z,99442.66
2022-09-10T04:36:20.759Z,99438.50
2022-09-10T04:36:52.168Z,99433.97
2022-09-10T04:37:23.573Z,99440.25
2022-09-10T04:37:55.043Z,99437.50
2022-09-10T04:38:26.565Z,99436.41
2022-09-10T04:38:57.990Z,99439.94
2022-09-10T04:39:29.401Z,99438.00
2022-09-10T04:40:00.903Z,99432.88
2022-09-10T04:40:32.418Z,99440.25
2022-09-10T04:41:03.814Z,99441.06
2022-09-10T04:41:35.195Z,99436.72
2022-09-10T04:42:06.674Z,99435.28
2022-09-10T04:42:38.095Z,99434.97
2022-09-10T04:43:09.582Z,99445.09
2022-09-10T04:43:41.217Z,99448.31
2022-09-10T04:44:12.627Z,99434.97
2022-09-10T04:44:44.021Z,99440.44
2022-09-10T04:45:15.428Z,99443.16
2022-09-10T04:45:46.909Z,99444.59
2022-09-10T04:46:18.350Z,99437.22
2022-09-10T04:46:49.763Z,99438.25
2022-09-10T04:47:21.179Z,99442.66
2022-09-10T04:47:52.586Z,99446.22
2022-09-10T04:48:24.165Z,99441.78
2022-09-10T04:48:55.616Z,99441.25
2022-09-10T04:49:27.015Z,99446.44
2022-09-10T04:49:58.449Z,99440.44
2022-09-10T04:50:29.813Z,99448.63
2022-09-10T04:51:17.707Z,99444.28
2022-09-10T04:51:49.642Z,99448.31
2022-09-10T04:52:21.092Z,99437.72
2022-09-10T04:52:52.495Z,99447.31
2022-09-10T04:53:23.943Z,99444.78
2022-09-10T04:53:55.396Z,99445.09
2022-09-10T04:54:26.831Z,99448.13
2022-09-10T04:54:58.271Z,99442.66
2022-09-10T04:55:29.706Z,99444.78
2022-09-10T04:56:01.149Z,99443.97
2022-09-10T04:56:32.600Z,99452.16
2022-09-10T04:57:04.050Z,99446.22
2022-09-10T04:57:35.503Z,99448.44
2022-09-10T04:58:06.939Z,99451.06
2022-09-10T04:58:39.253Z,99446.72
2022-09-10T04:59:10.894Z,99448.13
2022-09-10T04:59:42.400Z,99445.91
2022-09-10T05:00:13.823Z,99447.81
2022-09-10T05:00:45.331Z,99457.13
2022-09-10T05:01:16.849Z,99448.31
2022-09-10T05:01:48.356Z,99450.56
2022-09-10T05:02:19.815Z,99450.56
2022-09-10T05:02:51.255Z,99449.25
2022-09-10T05:03:22.694Z,99446.81
2022-09-10T05:03:54.113Z,99453.91
2022-09-10T05:04:25.503Z,99448.44
2022-09-10T05:04:56.940Z,99450.06
2022-09-10T05:05:28.316Z,99453.09
2022-09-10T05:05:59.677Z,99450.66
2022-09-10T05:06:33.921Z,99453.41
2022-09-10T05:07:05.333Z,99451.78
2022-09-10T05:07:36.723Z,99452.59
2022-09-10T05:08:08.135Z,99446.81
2022-09-10T05:08:39.711Z,99449.56
2022-09-10T05:09:11.297Z,99456.63
2022-09-10T05:09:42.752Z,99460.47
2022-09-10T05:10:14.166Z,99452.28
2022-09-10T05:10:45.612Z,99452.28
2022-09-10T05:11:17.192Z,99446.81
2022-09-10T05:11:48.577Z,99453.41
2022-09-10T05:12:20.042Z,99450.16
2022-09-10T05:12:51.469Z,99449.84
2022-09-10T05:13:22.891Z,99451.78
2022-09-10T05:13:54.320Z,99450.47
2022-09-10T05:14:25.805Z,99456.13
2022-09-10T05:14:57.194Z,99447.13
2022-09-10T05:15:28.618Z,99447.44
2022-09-10T05:15:59.978Z,99451.28
2022-09-10T05:16:31.453Z,99451.59
2022-09-10T05:17:02.957Z,99448.56
2022-09-10T05:17:34.380Z,99446.13
2022-09-10T05:18:05.833Z,99454.31
2022-09-10T05:18:37.288Z,99451.59
2022-09-10T05:19:08.763Z,99444.72
2022-09-10T05:19:40.170Z,99443.91
2022-09-10T05:20:11.536Z,99456.75
2022-09-10T05:20:42.885Z,99444.50
2022-09-10T05:21:14.427Z,99448.06
2022-09-10T05:21:45.850Z,99446.94
2022-09-10T05:22:17.399Z,99454.81
2022-09-10T05:22:48.974Z,99455.63
2022-09-10T05:23:20.574Z,99454.81
2022-09-10T05:23:52.109Z,99456.44
2022-09-10T05:24:23.532Z,99446.63
2022-09-10T05:24:55.003Z,99450.97
2022-09-10T05:25:26.397Z,99456.13
2022-09-10T05:25:57.805Z,99456.13
2022-09-10T05:26:29.191Z,99443.91
2022-09-10T05:27:00.632Z,99450.97
2022-09-10T05:27:32.087Z,99446.31
2022-09-10T05:28:03.523Z,99448.75
2022-09-10T05:28:34.981Z,99450.34
2022-09-10T05:29:06.502Z,99452.28
2022-09-10T05:29:37.908Z,99449.06
2022-09-10T05:30:09.395Z,99444.72
2022-09-10T05:30:40.797Z,99450.97
2022-09-10T05:31:12.284Z,99450.47
2022-09-10T05:31:43.755Z,99446.63
2022-09-10T05:32:15.210Z,99448.56
2022-09-10T05:32:46.682Z,99450.16
2022-09-10T05:33:18.112Z,99451.78
2022-09-10T05:33:49.547Z,99447.75
2022-09-10T05:34:21.018Z,99452.09
2022-09-10T05:34:52.452Z,99449.56
2022-09-10T05:35:24.083Z,99450.16
2022-09-10T05:35:55.515Z,99454.81
2022-09-10T05:36:26.933Z,99452.41
2022-09-10T05:36:58.305Z,99451.28
2022-09-10T05:37:29.755Z,99449.97
2022-09-10T05:38:01.408Z,99448.66
2022-09-10T05:38:35.208Z,99457.66
2022-09-10T05:39:08.469Z,99452.81
2022-09-10T05:39:40.040Z,99450.59
2022-09-10T05:40:11.513Z,99453.31
2022-09-10T05:40:43.074Z,99452.81
2022-09-10T05:41:14.489Z,99452.81
2022-09-10T05:41:45.922Z,99453.31
2022-09-10T05:42:17.459Z,99459.28
2022-09-10T05:42:48.881Z,99454.63
2022-09-10T05:43:20.392Z,99455.44
2022-09-10T05:43:51.791Z,99460.41
2022-09-10T05:44:23.285Z,99455.56
2022-09-10T05:44:55.660Z,99455.06
2022-09-10T05:45:27.113Z,99453.13
2022-09-10T05:45:58.606Z,99459.38
2022-09-10T05:46:30.158Z,99458.78
2022-09-10T05:47:01.613Z,99457.47
2022-09-10T05:47:33.071Z,99456.66
2022-09-10T05:48:04.507Z,99455.84
2022-09-10T05:48:39.653Z,99456.66
2022-09-10T05:49:12.925Z,99469.19
2022-09-10T05:49:44.371Z,99458.09
2022-09-10T05:50:15.796Z,99470.81
2022-09-10T05:50:47.308Z,99466.34
2022-09-10T05:51:18.680Z,99463.44
2022-09-10T05:51:50.105Z,99466.97
2022-09-10T05:52:21.533Z,99474.66
2022-09-10T05:52:52.945Z,99466.16
2022-09-10T05:53:24.388Z,99467.59
2022-09-10T05:53:55.923Z,99471.63
2022-09-10T05:54:27.349Z,99470.81
2022-09-10T05:54:58.753Z,99465.66
2022-09-10T05:55:30.189Z,99470.31
2022-09-10T05:56:01.620Z,99469.50
2022-09-10T05:56:33.042Z,99470.63
2022-09-10T05:57:04.446Z,99469.50
2022-09-10T05:57:35.826Z,99468.19
2022-09-10T05:58:07.212Z,99467.38
2022-09-10T05:58:38.650Z,99471.22
2022-09-10T05:59:10.207Z,99473.34
2022-09-10T05:59:41.664Z,99479.13
2022-09-10T06:00:13.097Z,99478.81
2022-09-10T06:00:44.487Z,99470.63
2022-09-10T06:01:16.011Z,99476.06
2022-09-10T06:01:47.536Z,99467.38
2022-09-10T06:02:23.731Z,99471.22
2022-09-10T06:02:55.715Z,99470.13
2022-09-10T06:03:27.175Z,99473.34
2022-09-10T06:03:58.665Z,99467.88
2022-09-10T06:04:30.088Z,99477.69
2022-09-10T06:05:01.530Z,99473.34
2022-09-10T06:05:32.980Z,99472.22
2022-09-10T06:06:04.405Z,99473.84
2022-09-10T06:06:35.825Z,99481.22
2022-09-10T06:07:07.296Z,99482.03
2022-09-10T06:07:38.710Z,99477.69
2022-09-10T06:08:10.242Z,99475.16
2022-09-10T06:08:41.656Z,99476.78
2022-09-10T06:09:13.126Z,99480.31
2022-09-10T06:09:44.557Z,99472.94
2022-09-10T06:10:16.284Z,99478.38